Shawmut, Montana
Current Conditions -  °F | °C
As of 8:20 PM on Sunday 21 Dec 2014 (Local Time) from KMVH Reporting Station
Overcast Overcast  
Wind Chill: 25°   Ceiling: 2800
Heat Index: 36°   Visibility: 10mi
Dew Point: 27°   Wind: 17mph
Humidity: 70%   Direction: 320°NW
Pressure: 29.59"   Gusts: 26mph
Location:  46.35°N, 109.52°W
Report Text: KMVH 220320Z AUTO 32015G23KT 10SM FEW024 BKN028 OVC070 02/M03 A2959 RMK A01
Loading
Personal Weather Stations






























Interactive Weather Map New forecast layout! Learn more

10-Day Weather Forecast

Advertisements
Track Severe Weather on mobile